createdAt,value
2018-05-07T00:00:14.975Z,2.67
2018-05-07T00:02:44.120Z,2.40
2018-05-07T00:05:13.298Z,2.60
2018-05-07T00:07:43.373Z,2.60
2018-05-07T00:10:13.344Z,2.43
2018-05-07T00:12:45.121Z,2.35
2018-05-07T00:15:15.058Z,2.50
2018-05-07T00:17:45.888Z,2.23
2018-05-07T00:20:15.338Z,2.62
2018-05-07T00:22:45.749Z,2.30
2018-05-07T00:25:14.897Z,2.70
2018-05-07T00:27:44.109Z,2.67
2018-05-07T00:30:13.337Z,2.73
2018-05-07T00:32:42.486Z,2.57
2018-05-07T00:35:12.471Z,2.95
2018-05-07T00:37:41.643Z,2.10
2018-05-07T00:40:10.826Z,2.28
2018-05-07T00:42:40.808Z,2.80
2018-05-07T00:45:09.984Z,2.75
2018-05-07T00:47:39.162Z,3.40
2018-05-07T00:50:08.703Z,2.62
2018-05-07T00:52:37.879Z,2.60
2018-05-07T00:55:21.647Z,2.75
2018-05-07T00:57:50.807Z,2.63
2018-05-07T01:00:19.966Z,6.53
2018-05-07T01:02:50.870Z,7.13
2018-05-07T01:05:20.068Z,4.60
2018-05-07T01:07:50.022Z,9.93
2018-05-07T01:10:20.170Z,7.90
2018-05-07T01:12:49.343Z,5.63
2018-05-07T01:15:19.280Z,3.60
2018-05-07T01:17:49.369Z,2.70
2018-05-07T01:20:19.316Z,2.47
2018-05-07T01:22:49.463Z,2.77
2018-05-07T01:25:18.665Z,2.30
2018-05-07T01:27:47.823Z,2.63
2018-05-07T01:30:17.080Z,2.60
2018-05-07T01:32:47.262Z,2.43
2018-05-07T01:35:16.458Z,2.70
2018-05-07T01:37:45.620Z,2.53
2018-05-07T01:40:14.802Z,3.12
2018-05-07T01:42:43.942Z,3.20
2018-05-07T01:45:13.084Z,2.62
2018-05-07T01:47:43.043Z,2.70
2018-05-07T01:50:12.198Z,3.13
2018-05-07T01:52:42.281Z,2.63
2018-05-07T01:55:11.433Z,2.50
2018-05-07T01:57:42.570Z,3.23
2018-05-07T02:00:12.484Z,2.62
2018-05-07T02:02:41.673Z,2.50
2018-05-07T02:05:10.817Z,2.22
2018-05-07T02:07:40.929Z,2.50
2018-05-07T02:10:10.082Z,2.90
2018-05-07T02:12:39.261Z,2.57
2018-05-07T02:15:08.429Z,2.92
2018-05-07T02:17:38.535Z,2.13
2018-05-07T02:20:08.470Z,2.97
2018-05-07T02:22:38.501Z,5.70
2018-05-07T02:25:07.682Z,4.70
2018-05-07T02:27:36.857Z,3.27
2018-05-07T02:30:06.819Z,3.65
2018-05-07T02:32:36.098Z,3.20
2018-05-07T02:35:06.206Z,3.20
2018-05-07T02:37:35.368Z,3.53
2018-05-07T02:40:05.323Z,3.13
2018-05-07T02:42:35.119Z,3.20
2018-05-07T02:45:04.405Z,3.10
2018-05-07T02:47:34.357Z,2.60
2018-05-07T02:50:03.500Z,2.97
2018-05-07T02:52:32.696Z,3.37
2018-05-07T02:55:01.859Z,5.00
2018-05-07T02:57:31.051Z,3.47
2018-05-07T03:00:00.223Z,3.20
2018-05-07T03:02:29.397Z,3.10
2018-05-07T03:05:00.360Z,3.57
2018-05-07T03:07:29.540Z,3.07
2018-05-07T03:09:59.492Z,2.87
2018-05-07T03:12:28.654Z,3.10
2018-05-07T03:14:59.422Z,4.70
2018-05-07T03:17:28.593Z,6.23
2018-05-07T03:19:59.226Z,3.93
2018-05-07T03:22:29.134Z,2.60
2018-05-07T03:24:58.794Z,3.53
2018-05-07T03:27:27.953Z,3.33
2018-05-07T03:30:00.152Z,4.37
2018-05-07T03:32:30.080Z,4.23
2018-05-07T03:34:59.245Z,3.80
2018-05-07T03:37:28.406Z,4.80
2018-05-07T03:39:59.586Z,4.92
2018-05-07T03:42:29.554Z,6.73
2018-05-07T03:44:58.704Z,8.20
2018-05-07T03:47:27.918Z,5.43
2018-05-07T03:49:57.056Z,4.37
2018-05-07T03:52:26.268Z,4.00
2018-05-07T03:54:57.133Z,3.33
2018-05-07T03:57:26.280Z,3.77
2018-05-07T03:59:55.441Z,3.70
2018-05-07T04:02:24.598Z,5.10
2018-05-07T04:04:54.505Z,5.30
2018-05-07T04:07:24.560Z,4.53
2018-05-07T04:09:55.788Z,4.37
2018-05-07T04:12:24.984Z,4.80
2018-05-07T04:14:54.167Z,4.90
2018-05-07T04:17:41.818Z,3.43
2018-05-07T04:20:28.734Z,3.60
2018-05-07T04:23:16.293Z,4.60
2018-05-07T04:25:45.496Z,3.30
2018-05-07T04:28:14.665Z,4.10
2018-05-07T04:30:43.827Z,4.53
2018-05-07T04:33:13.031Z,4.50
2018-05-07T04:35:42.946Z,3.30
2018-05-07T04:38:12.866Z,3.35
2018-05-07T04:40:42.798Z,3.20
2018-05-07T04:43:12.010Z,3.22
2018-05-07T04:45:42.842Z,3.60
2018-05-07T04:48:11.985Z,3.58
2018-05-07T04:50:41.150Z,3.10
2018-05-07T04:53:10.290Z,2.87
2018-05-07T04:55:40.231Z,3.10
2018-05-07T04:58:09.885Z,3.15
2018-05-07T05:00:39.051Z,3.27
2018-05-07T05:15:58.853Z,3.40
2018-05-07T05:18:27.995Z,4.43
2018-05-07T05:20:57.150Z,5.63
2018-05-07T05:23:26.292Z,7.63
2018-05-07T05:25:56.233Z,10.93
2018-05-07T05:28:26.153Z,5.07
2018-05-07T05:30:56.089Z,7.80
2018-05-07T05:33:25.257Z,4.73
2018-05-07T05:35:55.176Z,3.93
2018-05-07T05:38:25.106Z,3.77
2018-05-07T05:40:54.257Z,7.93
2018-05-07T05:43:24.183Z,7.10
2018-05-07T05:45:53.306Z,4.80
2018-05-07T05:48:23.237Z,5.00
2018-05-07T05:50:52.371Z,3.90
2018-05-07T05:53:22.290Z,3.27
2018-05-07T05:55:51.460Z,3.17
2018-05-07T05:58:21.602Z,3.57
2018-05-07T06:00:50.745Z,3.50
2018-05-07T06:03:19.924Z,3.40
2018-05-07T06:05:49.081Z,3.50
2018-05-07T06:08:18.204Z,2.90
2018-05-07T06:10:47.352Z,3.17
2018-05-07T06:13:16.490Z,3.90
2018-05-07T06:15:45.655Z,2.97
2018-05-07T06:18:14.875Z,2.90
2018-05-07T06:20:44.758Z,3.80
2018-05-07T06:23:13.891Z,3.25
2018-05-07T06:25:43.065Z,3.10
2018-05-07T06:28:12.225Z,3.42
2018-05-07T06:30:42.142Z,2.77
2018-05-07T06:33:12.067Z,2.97
2018-05-07T06:35:41.217Z,3.07
2018-05-07T06:38:10.363Z,3.42
2018-05-07T06:40:39.622Z,2.70
2018-05-07T06:43:09.585Z,3.50
2018-05-07T06:45:39.082Z,3.70
2018-05-07T06:48:08.202Z,3.20
2018-05-07T06:50:38.137Z,3.83
2018-05-07T06:53:07.274Z,3.15
2018-05-07T06:55:36.433Z,3.63
2018-05-07T06:58:06.342Z,3.67
2018-05-07T07:00:35.494Z,2.77
2018-05-07T07:03:04.656Z,3.33
2018-05-07T07:05:34.694Z,2.80
2018-05-07T07:08:04.735Z,4.40
2018-05-07T07:10:34.046Z,2.67
2018-05-07T07:13:03.217Z,3.40
2018-05-07T07:15:32.874Z,3.00
2018-05-07T07:18:02.012Z,3.40
2018-05-07T07:20:31.930Z,3.10
2018-05-07T07:23:01.126Z,3.00
2018-05-07T07:25:31.088Z,2.60
2018-05-07T07:28:00.306Z,2.83
2018-05-07T07:30:29.454Z,3.03
2018-05-07T07:32:59.542Z,3.40
2018-05-07T07:35:29.448Z,3.00
2018-05-07T07:37:59.512Z,2.70
2018-05-07T07:40:28.691Z,2.77
2018-05-07T07:42:59.839Z,3.07
2018-05-07T07:45:28.974Z,2.93
2018-05-07T07:47:58.143Z,3.03
2018-05-07T07:50:27.301Z,2.80
2018-05-07T07:52:58.145Z,2.90
2018-05-07T07:55:28.043Z,3.63
2018-05-07T07:57:57.989Z,3.30
2018-05-07T08:00:27.125Z,2.97
2018-05-07T08:02:56.283Z,3.63
2018-05-07T08:05:25.439Z,2.80
2018-05-07T08:07:54.671Z,3.10
2018-05-07T08:10:24.603Z,3.30
2018-05-07T08:12:53.779Z,3.50
2018-05-07T08:15:23.753Z,3.07
2018-05-07T08:17:52.889Z,2.50
2018-05-07T08:20:22.803Z,2.93
2018-05-07T08:22:52.760Z,3.57
2018-05-07T08:25:21.911Z,3.03
2018-05-07T08:27:51.920Z,3.10
2018-05-07T08:30:21.078Z,3.20
2018-05-07T08:32:50.222Z,3.20
2018-05-07T08:35:20.148Z,3.40
2018-05-07T08:37:49.311Z,2.93
2018-05-07T08:40:18.512Z,3.43
2018-05-07T08:42:47.638Z,2.87
2018-05-07T08:45:17.558Z,3.62
2018-05-07T08:47:47.472Z,3.50
2018-05-07T08:50:17.414Z,2.62
2018-05-07T08:52:47.323Z,2.80
2018-05-07T08:55:16.497Z,3.33
2018-05-07T08:57:46.436Z,3.23
2018-05-07T09:00:15.614Z,3.20
2018-05-07T09:02:44.870Z,3.00
2018-05-07T09:05:14.018Z,2.83
2018-05-07T09:07:43.170Z,3.53
2018-05-07T09:10:12.336Z,3.40
2018-05-07T09:12:41.489Z,3.03
2018-05-07T09:15:11.401Z,2.67
2018-05-07T09:17:41.325Z,3.80
2018-05-07T09:20:11.234Z,3.30
2018-05-07T09:22:40.389Z,3.30
2018-05-07T09:25:09.541Z,3.00
2018-05-07T09:27:38.681Z,3.20
2018-05-07T09:30:07.839Z,2.90
2018-05-07T09:32:37.749Z,3.47
2018-05-07T09:35:06.910Z,3.17
2018-05-07T09:37:36.055Z,3.13
2018-05-07T09:40:05.209Z,3.10
2018-05-07T09:42:34.341Z,3.43
2018-05-07T09:45:03.528Z,3.37
2018-05-07T09:47:33.469Z,3.60
2018-05-07T09:50:03.569Z,3.10
2018-05-07T09:52:32.748Z,3.40
2018-05-07T09:55:02.661Z,3.57
2018-05-07T09:57:31.847Z,4.03
2018-05-07T10:00:02.167Z,3.17
2018-05-07T10:02:31.375Z,3.37
2018-05-07T10:05:00.498Z,3.23
2018-05-07T10:07:29.666Z,3.20
2018-05-07T10:09:59.862Z,3.80
2018-05-07T10:12:29.006Z,3.83
2018-05-07T10:15:00.267Z,3.50
2018-05-07T10:17:29.421Z,3.53
2018-05-07T10:19:59.828Z,3.17
2018-05-07T10:22:29.165Z,3.30
2018-05-07T10:25:00.352Z,3.47
2018-05-07T10:27:29.537Z,2.90
2018-05-07T10:29:59.928Z,2.83
2018-05-07T10:32:30.002Z,3.50
2018-05-07T10:34:59.929Z,3.43
2018-05-07T10:37:29.090Z,3.30
2018-05-07T10:39:58.267Z,2.90
2018-05-07T10:42:28.209Z,3.50
2018-05-07T10:44:58.370Z,4.23
2018-05-07T10:47:27.517Z,3.27
2018-05-07T10:49:57.421Z,3.50
2018-05-07T10:52:27.341Z,2.80
2018-05-07T10:54:57.241Z,3.03
2018-05-07T10:57:27.167Z,3.73
2018-05-07T10:59:57.081Z,3.10
2018-05-07T11:02:27.326Z,3.17
2018-05-07T11:04:56.485Z,3.27
2018-05-07T11:07:25.740Z,3.03
2018-05-07T11:09:54.816Z,3.40
2018-05-07T11:12:23.964Z,3.20
2018-05-07T11:14:53.107Z,3.47
2018-05-07T11:17:22.315Z,3.73
2018-05-07T11:19:51.578Z,2.90
2018-05-07T11:22:21.459Z,2.80
2018-05-07T11:24:51.566Z,3.00
2018-05-07T11:27:21.062Z,3.40
2018-05-07T11:29:50.229Z,2.93
2018-05-07T11:32:20.329Z,3.47
2018-05-07T11:34:50.275Z,2.83
2018-05-07T11:37:19.405Z,3.30
2018-05-07T11:39:48.549Z,2.40
2018-05-07T11:42:17.711Z,2.40
2018-05-07T11:44:46.873Z,2.70
2018-05-07T11:47:16.049Z,2.80
2018-05-07T11:49:45.225Z,3.00
2018-05-07T11:52:15.145Z,2.60
2018-05-07T11:54:44.273Z,3.43
2018-05-07T11:57:13.432Z,3.47
2018-05-07T11:59:42.600Z,3.40
2018-05-07T12:02:12.537Z,2.55
2018-05-07T12:04:41.690Z,2.67
2018-05-07T12:07:10.850Z,2.85
2018-05-07T12:09:40.167Z,2.13
2018-05-07T12:12:09.370Z,2.90
2018-05-07T12:14:38.545Z,2.80
2018-05-07T12:17:07.707Z,2.50
2018-05-07T12:19:37.130Z,2.80
2018-05-07T12:22:06.301Z,2.78
2018-05-07T12:24:36.229Z,2.40
2018-05-07T12:27:05.763Z,2.97
2018-05-07T12:29:34.904Z,3.00
2018-05-07T12:32:05.025Z,3.50
2018-05-07T12:34:34.165Z,2.80
2018-05-07T12:37:03.316Z,2.73
2018-05-07T12:39:35.161Z,2.67
2018-05-07T12:42:04.329Z,2.73
2018-05-07T12:44:33.572Z,2.70
2018-05-07T12:47:02.736Z,2.60
2018-05-07T12:49:31.888Z,2.97
2018-05-07T12:52:01.082Z,2.40
2018-05-07T12:54:31.012Z,3.20
2018-05-07T12:57:00.459Z,3.00
2018-05-07T12:59:29.865Z,2.50
2018-05-07T13:02:00.228Z,2.73
2018-05-07T13:04:29.405Z,2.00
2018-05-07T13:06:58.621Z,2.50
2018-05-07T13:09:28.547Z,3.27
2018-05-07T13:11:59.320Z,2.87
2018-05-07T13:14:28.967Z,2.60
2018-05-07T13:16:58.133Z,2.27
2018-05-07T13:19:27.318Z,2.70
2018-05-07T13:21:56.466Z,3.33
2018-05-07T13:24:26.387Z,2.43
2018-05-07T13:26:56.330Z,2.70
2018-05-07T13:29:25.483Z,2.70
2018-05-07T13:31:54.654Z,3.10
2018-05-07T13:34:23.792Z,2.50
2018-05-07T13:36:53.791Z,2.93
2018-05-07T13:39:23.820Z,3.00
2018-05-07T13:41:53.769Z,2.57
2018-05-07T13:44:22.929Z,3.07
2018-05-07T13:46:52.087Z,3.20
2018-05-07T13:49:21.249Z,3.20
2018-05-07T13:51:50.402Z,2.83
2018-05-07T13:54:19.576Z,2.30
2018-05-07T13:56:49.540Z,3.63
2018-05-07T13:59:19.830Z,2.60
2018-05-07T14:01:48.963Z,3.03
2018-05-07T14:04:18.884Z,3.28
2018-05-07T14:06:48.830Z,2.77
2018-05-07T14:09:18.730Z,2.85
2018-05-07T14:11:47.900Z,2.93
2018-05-07T14:14:17.827Z,2.62
2018-05-07T14:16:48.006Z,2.77
2018-05-07T14:19:17.889Z,2.90
2018-05-07T14:21:47.035Z,2.43
2018-05-07T14:24:17.715Z,3.00
2018-05-07T14:26:46.872Z,2.40
2018-05-07T14:29:16.799Z,2.70
2018-05-07T14:31:46.739Z,2.40
2018-05-07T14:34:16.221Z,2.62
2018-05-07T14:36:46.162Z,2.53
2018-05-07T14:39:16.107Z,2.10
2018-05-07T14:41:45.278Z,3.20
2018-05-07T14:44:15.061Z,2.50
2018-05-07T14:46:44.985Z,2.40
2018-05-07T14:49:14.122Z,2.60
2018-05-07T14:51:43.469Z,2.60
2018-05-07T14:54:14.382Z,2.20
2018-05-07T14:56:43.557Z,2.50
2018-05-07T14:59:12.734Z,2.58
2018-05-07T15:01:41.915Z,2.50
2018-05-07T15:04:12.059Z,2.80
2018-05-07T15:06:41.240Z,2.33
2018-05-07T15:09:10.442Z,3.10
2018-05-07T15:11:39.603Z,2.77
2018-05-07T15:14:22.353Z,2.77
2018-05-07T15:16:51.573Z,2.10
2018-05-07T15:19:20.725Z,2.90
2018-05-07T15:21:50.652Z,2.80
2018-05-07T15:24:19.829Z,2.20
2018-05-07T15:26:50.476Z,2.53
2018-05-07T15:29:21.558Z,2.93
2018-05-07T15:31:50.630Z,3.07
2018-05-07T15:34:19.780Z,2.70
2018-05-07T15:36:48.976Z,3.43
2018-05-07T15:39:18.122Z,2.67
2018-05-07T15:41:47.334Z,2.00
2018-05-07T15:44:16.595Z,2.47
2018-05-07T15:46:46.529Z,2.90
2018-05-07T15:49:15.705Z,3.30
2018-05-07T15:51:45.922Z,2.77
2018-05-07T15:54:15.129Z,2.83
2018-05-07T15:56:45.099Z,2.57
2018-05-07T15:59:14.285Z,2.33
2018-05-07T16:01:43.484Z,2.23
2018-05-07T16:04:12.654Z,2.90
2018-05-07T16:06:42.810Z,2.70
2018-05-07T16:09:11.985Z,2.40
2018-05-07T16:11:42.118Z,2.57
2018-05-07T16:14:11.295Z,2.40
2018-05-07T16:16:41.460Z,2.83
2018-05-07T16:19:10.615Z,2.67
2018-05-07T16:21:40.678Z,3.10
2018-05-07T16:24:09.847Z,3.50
2018-05-07T16:26:39.091Z,2.80
2018-05-07T16:29:08.234Z,2.87
2018-05-07T16:31:37.414Z,2.50
2018-05-07T16:34:06.570Z,2.17
2018-05-07T16:36:35.760Z,2.63
2018-05-07T16:39:05.841Z,2.70
2018-05-07T16:41:35.244Z,3.03
2018-05-07T16:44:04.224Z,2.70
2018-05-07T16:46:33.426Z,3.07
2018-05-07T16:49:02.649Z,2.60
2018-05-07T16:51:32.814Z,3.20
2018-05-07T16:54:01.986Z,2.53
2018-05-07T16:56:31.180Z,2.85
2018-05-07T16:59:04.183Z,2.30
2018-05-07T17:01:33.331Z,2.50
2018-05-07T17:04:02.478Z,2.83
2018-05-07T17:06:33.155Z,3.17
2018-05-07T17:09:02.310Z,2.65
2018-05-07T17:11:31.462Z,2.60
2018-05-07T17:14:01.334Z,2.95
2018-05-07T17:16:30.487Z,2.53
2018-05-07T17:18:59.663Z,2.72
2018-05-07T17:21:28.808Z,3.17
2018-05-07T17:23:59.541Z,2.40
2018-05-07T17:26:29.718Z,2.92
2018-05-07T17:28:58.886Z,2.20
2018-05-07T17:31:29.826Z,2.33
2018-05-07T17:33:59.981Z,2.65
2018-05-07T17:36:28.975Z,2.50
2018-05-07T17:38:58.162Z,2.92
2018-05-07T17:41:27.415Z,2.50
2018-05-07T17:43:56.572Z,3.10
2018-05-07T17:46:43.522Z,2.20
2018-05-07T17:49:13.857Z,2.75
2018-05-07T17:51:42.913Z,2.78
2018-05-07T17:54:12.065Z,2.85
2018-05-07T17:56:42.044Z,3.33
2018-05-07T17:59:11.223Z,2.83
2018-05-07T18:01:40.369Z,2.50
2018-05-07T18:04:10.287Z,2.83
2018-05-07T18:06:40.381Z,2.70
2018-05-07T18:09:09.629Z,2.40
2018-05-07T18:11:38.776Z,2.60
2018-05-07T18:14:07.928Z,2.12
2018-05-07T18:16:37.152Z,2.10
2018-05-07T18:19:06.379Z,2.58
2018-05-07T18:21:35.518Z,3.07
2018-05-07T18:24:04.713Z,3.03
2018-05-07T18:26:33.987Z,2.70
2018-05-07T18:29:03.144Z,2.50
2018-05-07T18:31:32.382Z,3.50
2018-05-07T18:34:01.615Z,2.87
2018-05-07T18:36:31.032Z,3.60
2018-05-07T18:38:59.996Z,3.37
2018-05-07T18:41:29.166Z,2.53
2018-05-07T18:43:58.317Z,2.70
2018-05-07T18:46:27.542Z,2.93
2018-05-07T18:48:58.414Z,2.87
2018-05-07T18:51:28.353Z,3.00
2018-05-07T18:53:57.494Z,2.90
2018-05-07T18:56:27.074Z,2.70
2018-05-07T18:58:57.183Z,3.67
2018-05-07T19:01:26.382Z,3.17
2018-05-07T19:03:55.557Z,2.67
2018-05-07T19:06:24.731Z,2.60
2018-05-07T19:08:53.901Z,3.80
2018-05-07T19:11:23.041Z,3.40
2018-05-07T19:13:52.982Z,3.30
2018-05-07T19:16:22.163Z,2.83
2018-05-07T19:18:52.132Z,2.70
2018-05-07T19:21:21.319Z,2.83
2018-05-07T19:23:50.513Z,2.63
2018-05-07T19:26:19.706Z,2.97
2018-05-07T19:28:48.890Z,2.67
2018-05-07T19:31:18.089Z,2.80
2018-05-07T19:33:47.248Z,3.37
2018-05-07T19:36:16.431Z,3.10
2018-05-07T19:38:45.576Z,2.83
2018-05-07T19:41:16.733Z,2.87
2018-05-07T19:43:45.891Z,3.10
2018-05-07T19:46:15.815Z,3.10
2018-05-07T19:48:46.697Z,2.50
2018-05-07T19:51:15.855Z,2.90
2018-05-07T19:53:45.056Z,3.10
2018-05-07T19:56:14.243Z,3.30
2018-05-07T19:58:44.161Z,3.90
2018-05-07T20:01:13.357Z,3.12
2018-05-07T20:03:42.536Z,3.80
2018-05-07T20:06:12.442Z,3.75
2018-05-07T20:08:42.413Z,3.57
2018-05-07T20:11:11.585Z,3.90
2018-05-07T20:13:41.781Z,3.47
2018-05-07T20:16:11.719Z,3.27
2018-05-07T20:18:41.647Z,3.23
2018-05-07T20:21:10.789Z,3.00
2018-05-07T20:23:39.962Z,3.23
2018-05-07T20:26:09.110Z,3.08
2018-05-07T20:28:39.047Z,3.83
2018-05-07T20:31:08.648Z,3.40
2018-05-07T20:33:37.859Z,3.33
2018-05-07T20:36:07.072Z,4.00
2018-05-07T20:38:36.344Z,3.40
2018-05-07T20:41:06.272Z,2.90
2018-05-07T20:43:35.495Z,3.50
2018-05-07T20:46:04.687Z,3.60
2018-05-07T20:48:33.852Z,3.47
2018-05-07T20:51:03.762Z,3.67
2018-05-07T20:53:33.672Z,2.70
2018-05-07T20:56:05.605Z,3.17
2018-05-07T20:58:35.519Z,3.43
2018-05-07T21:01:04.660Z,3.80
2018-05-07T21:03:34.180Z,3.40
2018-05-07T21:06:03.369Z,3.57
2018-05-07T21:08:32.567Z,3.50
2018-05-07T21:11:02.154Z,3.80
2018-05-07T21:13:32.095Z,3.27
2018-05-07T21:16:02.231Z,3.50
2018-05-07T21:18:31.380Z,2.97
2018-05-07T21:21:02.542Z,3.20
2018-05-07T21:23:31.767Z,3.23
2018-05-07T21:26:02.171Z,3.60
2018-05-07T21:28:31.348Z,3.30
2018-05-07T21:31:02.522Z,4.00
2018-05-07T21:33:31.706Z,3.43
2018-05-07T21:36:02.102Z,3.33
2018-05-07T21:38:31.272Z,3.30
2018-05-07T21:41:00.423Z,3.80
2018-05-07T21:43:31.004Z,4.40
2018-05-07T21:46:00.117Z,3.43
2018-05-07T21:48:29.265Z,3.33
2018-05-07T21:50:59.196Z,4.23
2018-05-07T21:53:28.433Z,3.70
2018-05-07T21:55:58.257Z,3.57
2018-05-07T21:58:28.198Z,3.03
2018-05-07T22:00:58.525Z,3.60
2018-05-07T22:03:28.000Z,3.73
2018-05-07T22:05:57.165Z,3.33
2018-05-07T22:08:26.338Z,3.50
2018-05-07T22:10:56.418Z,3.50
2018-05-07T22:13:26.334Z,4.40
2018-05-07T22:15:55.484Z,4.03
2018-05-07T22:18:24.656Z,3.70
2018-05-07T22:20:53.794Z,4.37
2018-05-07T22:23:22.989Z,3.70
2018-05-07T22:25:52.180Z,3.50
2018-05-07T22:28:21.326Z,4.00
2018-05-07T22:30:50.517Z,3.63
2018-05-07T22:33:20.427Z,3.87
2018-05-07T22:35:50.349Z,3.67
2018-05-07T22:38:20.291Z,3.70
2018-05-07T22:40:49.468Z,3.30
2018-05-07T22:43:19.861Z,4.12
2018-05-07T22:45:50.235Z,3.50
2018-05-07T22:48:19.447Z,3.97
2018-05-07T22:50:48.592Z,3.70
2018-05-07T22:53:18.531Z,3.95
2018-05-07T22:55:48.273Z,3.60
2018-05-07T22:58:18.554Z,3.47
2018-05-07T23:00:48.925Z,3.50
2018-05-07T23:03:18.073Z,3.60
2018-05-07T23:05:47.998Z,3.70
2018-05-07T23:08:17.913Z,3.90
2018-05-07T23:10:47.812Z,3.03
2018-05-07T23:13:17.744Z,3.25
2018-05-07T23:15:47.646Z,3.43
2018-05-07T23:18:17.561Z,3.47
2018-05-07T23:20:47.552Z,3.80
2018-05-07T23:23:16.718Z,3.35
2018-05-07T23:25:45.859Z,4.17
2018-05-07T23:28:15.015Z,3.75
2018-05-07T23:30:44.188Z,3.93
2018-05-07T23:33:13.367Z,3.53
2018-05-07T23:35:43.269Z,4.20
2018-05-07T23:38:13.210Z,3.50
2018-05-07T23:40:43.114Z,4.03
2018-05-07T23:43:13.024Z,3.67
2018-05-07T23:45:43.009Z,3.40
2018-05-07T23:48:13.101Z,3.97
2018-05-07T23:50:43.025Z,3.20
2018-05-07T23:53:13.130Z,3.10
2018-05-07T23:55:42.304Z,3.40
2018-05-07T23:58:11.457Z,3.77
